sensor_id;sensor_type;location;lat;lon;timestamp;P1;durP1;ratioP1;P2;durP2;ratioP2
52322;SDS011;38263;52.920;6.238;2023-02-15T00:01:12;36.47;;;19.20;;
52322;SDS011;38263;52.920;6.238;2023-02-15T00:03:38;30.52;;;19.80;;
52322;SDS011;38263;52.920;6.238;2023-02-15T00:06:05;33.13;;;21.08;;
52322;SDS011;38263;52.920;6.238;2023-02-15T00:08:31;32.67;;;21.17;;
52322;SDS011;38263;52.920;6.238;2023-02-15T00:11:04;30.40;;;18.95;;
52322;SDS011;38263;52.920;6.238;2023-02-15T00:13:30;30.73;;;20.15;;
52322;SDS011;38263;52.920;6.238;2023-02-15T00:16:00;44.50;;;22.58;;
52322;SDS011;38263;52.920;6.238;2023-02-15T00:18:27;75.55;;;26.02;;
52322;SDS011;38263;52.920;6.238;2023-02-15T00:20:53;50.35;;;23.35;;
52322;SDS011;38263;52.920;6.238;2023-02-15T00:23:19;47.78;;;21.67;;
52322;SDS011;38263;52.920;6.238;2023-02-15T00:25:45;50.47;;;20.30;;
52322;SDS011;38263;52.920;6.238;2023-02-15T00:28:11;60.33;;;19.13;;
52322;SDS011;38263;52.920;6.238;2023-02-15T00:30:37;26.15;;;17.20;;
52322;SDS011;38263;52.920;6.238;2023-02-15T00:33:03;36.72;;;17.25;;
52322;SDS011;38263;52.920;6.238;2023-02-15T00:35:29;47.20;;;17.88;;
52322;SDS011;38263;52.920;6.238;2023-02-15T00:37:55;34.47;;;17.13;;
52322;SDS011;38263;52.920;6.238;2023-02-15T00:40:21;30.10;;;18.52;;
52322;SDS011;38263;52.920;6.238;2023-02-15T00:42:47;31.63;;;19.50;;
52322;SDS011;38263;52.920;6.238;2023-02-15T00:45:13;27.88;;;18.02;;
52322;SDS011;38263;52.920;6.238;2023-02-15T00:47:39;29.60;;;18.02;;
52322;SDS011;38263;52.920;6.238;2023-02-15T00:50:05;41.67;;;20.48;;
52322;SDS011;38263;52.920;6.238;2023-02-15T00:52:31;29.20;;;18.48;;
52322;SDS011;38263;52.920;6.238;2023-02-15T00:54:57;27.77;;;18.15;;
52322;SDS011;38263;52.920;6.238;2023-02-15T00:57:23;28.38;;;18.23;;
52322;SDS011;38263;52.920;6.238;2023-02-15T00:59:49;26.92;;;16.55;;
52322;SDS011;38263;52.920;6.238;2023-02-15T01:02:16;26.05;;;17.40;;
52322;SDS011;38263;52.920;6.238;2023-02-15T01:04:42;26.35;;;18.23;;
52322;SDS011;38263;52.920;6.238;2023-02-15T01:07:08;27.58;;;17.95;;
52322;SDS011;38263;52.920;6.238;2023-02-15T01:09:34;27.25;;;17.13;;
52322;SDS011;38263;52.920;6.238;2023-02-15T01:12:00;36.22;;;22.40;;
52322;SDS011;38263;52.920;6.238;2023-02-15T01:14:26;45.40;;;24.83;;
52322;SDS011;38263;52.920;6.238;2023-02-15T01:16:52;39.92;;;22.58;;
52322;SDS011;38263;52.920;6.238;2023-02-15T01:25:50;45.80;;;25.15;;
52322;SDS011;38263;52.920;6.238;2023-02-15T01:28:16;47.92;;;25.48;;
52322;SDS011;38263;52.920;6.238;2023-02-15T01:30:42;41.10;;;24.05;;
52322;SDS011;38263;52.920;6.238;2023-02-15T01:33:08;40.42;;;24.10;;
52322;SDS011;38263;52.920;6.238;2023-02-15T01:35:42;41.05;;;25.25;;
52322;SDS011;38263;52.920;6.238;2023-02-15T01:38:08;48.97;;;25.95;;
52322;SDS011;38263;52.920;6.238;2023-02-15T01:40:34;46.60;;;25.48;;
52322;SDS011;38263;52.920;6.238;2023-02-15T01:43:00;58.88;;;29.40;;
52322;SDS011;38263;52.920;6.238;2023-02-15T01:45:28;47.90;;;27.38;;
52322;SDS011;38263;52.920;6.238;2023-02-15T01:50:32;51.63;;;27.65;;
52322;SDS011;38263;52.920;6.238;2023-02-15T01:53:03;50.10;;;28.70;;
52322;SDS011;38263;52.920;6.238;2023-02-15T01:55:39;49.08;;;25.77;;
52322;SDS011;38263;52.920;6.238;2023-02-15T01:58:18;45.72;;;24.40;;
52322;SDS011;38263;52.920;6.238;2023-02-15T02:00:45;48.83;;;27.77;;
52322;SDS011;38263;52.920;6.238;2023-02-15T02:03:11;42.90;;;23.63;;
52322;SDS011;38263;52.920;6.238;2023-02-15T02:05:37;37.65;;;21.23;;
52322;SDS011;38263;52.920;6.238;2023-02-15T02:08:04;43.88;;;24.55;;
52322;SDS011;38263;52.920;6.238;2023-02-15T02:10:30;68.57;;;30.05;;
52322;SDS011;38263;52.920;6.238;2023-02-15T02:13:00;48.28;;;26.55;;
52322;SDS011;38263;52.920;6.238;2023-02-15T02:15:33;54.83;;;27.10;;
52322;SDS011;38263;52.920;6.238;2023-02-15T02:18:22;54.60;;;27.15;;
52322;SDS011;38263;52.920;6.238;2023-02-15T02:20:52;125.03;;;36.33;;
52322;SDS011;38263;52.920;6.238;2023-02-15T02:23:33;50.53;;;26.52;;
52322;SDS011;38263;52.920;6.238;2023-02-15T02:31:25;44.90;;;24.15;;
52322;SDS011;38263;52.920;6.238;2023-02-15T02:33:58;36.50;;;21.15;;
52322;SDS011;38263;52.920;6.238;2023-02-15T02:41:46;41.55;;;23.58;;
52322;SDS011;38263;52.920;6.238;2023-02-15T02:44:21;47.15;;;24.40;;
52322;SDS011;38263;52.920;6.238;2023-02-15T02:46:50;43.03;;;23.40;;
52322;SDS011;38263;52.920;6.238;2023-02-15T02:49:28;42.22;;;24.27;;
52322;SDS011;38263;52.920;6.238;2023-02-15T02:51:58;41.65;;;24.33;;
52322;SDS011;38263;52.920;6.238;2023-02-15T02:54:24;42.08;;;21.65;;
52322;SDS011;38263;52.920;6.238;2023-02-15T02:56:50;35.42;;;21.50;;
52322;SDS011;38263;52.920;6.238;2023-02-15T02:59:20;38.10;;;22.85;;
52322;SDS011;38263;52.920;6.238;2023-02-15T03:01:51;34.75;;;21.92;;
52322;SDS011;38263;52.920;6.238;2023-02-15T03:04:29;36.35;;;21.02;;
52322;SDS011;38263;52.920;6.238;2023-02-15T03:07:02;33.22;;;20.77;;
52322;SDS011;38263;52.920;6.238;2023-02-15T03:09:31;34.17;;;21.73;;
52322;SDS011;38263;52.920;6.238;2023-02-15T03:12:06;36.28;;;22.30;;
52322;SDS011;38263;52.920;6.238;2023-02-15T03:14:33;38.17;;;23.60;;
52322;SDS011;38263;52.920;6.238;2023-02-15T03:16:59;35.15;;;21.50;;
52322;SDS011;38263;52.920;6.238;2023-02-15T03:19:27;36.17;;;22.30;;
52322;SDS011;38263;52.920;6.238;2023-02-15T03:21:56;41.42;;;22.58;;
52322;SDS011;38263;52.920;6.238;2023-02-15T03:24:32;35.92;;;22.33;;
52322;SDS011;38263;52.920;6.238;2023-02-15T03:27:00;35.55;;;21.48;;
52322;SDS011;38263;52.920;6.238;2023-02-15T03:29:28;33.10;;;20.63;;
52322;SDS011;38263;52.920;6.238;2023-02-15T03:31:58;36.60;;;22.77;;
52322;SDS011;38263;52.920;6.238;2023-02-15T03:34:25;36.45;;;22.60;;
52322;SDS011;38263;52.920;6.238;2023-02-15T03:36:52;37.95;;;23.77;;
52322;SDS011;38263;52.920;6.238;2023-02-15T03:39:27;33.35;;;21.58;;
52322;SDS011;38263;52.920;6.238;2023-02-15T03:42:13;33.95;;;21.83;;
52322;SDS011;38263;52.920;6.238;2023-02-15T03:44:58;34.53;;;22.52;;
52322;SDS011;38263;52.920;6.238;2023-02-15T03:47:26;39.22;;;22.95;;
52322;SDS011;38263;52.920;6.238;2023-02-15T03:52:52;38.30;;;23.08;;
52322;SDS011;38263;52.920;6.238;2023-02-15T03:55:19;35.47;;;21.70;;
52322;SDS011;38263;52.920;6.238;2023-02-15T03:57:45;34.45;;;21.63;;
52322;SDS011;38263;52.920;6.238;2023-02-15T04:00:31;32.67;;;20.95;;
52322;SDS011;38263;52.920;6.238;2023-02-15T04:03:26;32.72;;;20.13;;
52322;SDS011;38263;52.920;6.238;2023-02-15T04:06:17;35.15;;;22.35;;
52322;SDS011;38263;52.920;6.238;2023-02-15T04:08:43;35.20;;;22.25;;
52322;SDS011;38263;52.920;6.238;2023-02-15T04:11:27;37.00;;;21.65;;
52322;SDS011;38263;52.920;6.238;2023-02-15T04:13:53;47.28;;;20.60;;
52322;SDS011;38263;52.920;6.238;2023-02-15T04:16:22;81.95;;;25.83;;
52322;SDS011;38263;52.920;6.238;2023-02-15T04:18:48;42.60;;;25.20;;
52322;SDS011;38263;52.920;6.238;2023-02-15T04:21:32;81.15;;;27.42;;
52322;SDS011;38263;52.920;6.238;2023-02-15T04:24:17;58.78;;;25.90;;
52322;SDS011;38263;52.920;6.238;2023-02-15T04:27:03;44.00;;;25.58;;
52322;SDS011;38263;52.920;6.238;2023-02-15T04:29:29;45.38;;;26.05;;
52322;SDS011;38263;52.920;6.238;2023-02-15T04:31:58;53.45;;;28.23;;
52322;SDS011;38263;52.920;6.238;2023-02-15T04:34:24;52.97;;;26.38;;
52322;SDS011;38263;52.920;6.238;2023-02-15T04:36:50;55.47;;;29.73;;
52322;SDS011;38263;52.920;6.238;2023-02-15T04:39:16;50.88;;;29.08;;
52322;SDS011;38263;52.920;6.238;2023-02-15T04:41:43;52.20;;;27.42;;
52322;SDS011;38263;52.920;6.238;2023-02-15T04:44:09;52.53;;;29.15;;
52322;SDS011;38263;52.920;6.238;2023-02-15T04:46:35;54.17;;;29.00;;
52322;SDS011;38263;52.920;6.238;2023-02-15T04:49:01;55.70;;;30.23;;
52322;SDS011;38263;52.920;6.238;2023-02-15T04:51:27;63.90;;;35.53;;
52322;SDS011;38263;52.920;6.238;2023-02-15T04:53:53;75.43;;;37.63;;
52322;SDS011;38263;52.920;6.238;2023-02-15T04:56:20;74.03;;;38.35;;
52322;SDS011;38263;52.920;6.238;2023-02-15T04:58:47;68.38;;;35.47;;
52322;SDS011;38263;52.920;6.238;2023-02-15T05:01:13;65.57;;;34.83;;
52322;SDS011;38263;52.920;6.238;2023-02-15T05:03:40;79.35;;;38.05;;
52322;SDS011;38263;52.920;6.238;2023-02-15T05:06:06;83.97;;;38.35;;
52322;SDS011;38263;52.920;6.238;2023-02-15T05:08:33;77.40;;;35.22;;
52322;SDS011;38263;52.920;6.238;2023-02-15T05:10:59;76.18;;;36.17;;
52322;SDS011;38263;52.920;6.238;2023-02-15T05:13:24;98.93;;;45.63;;
52322;SDS011;38263;52.920;6.238;2023-02-15T05:15:51;99.63;;;45.22;;
52322;SDS011;38263;52.920;6.238;2023-02-15T05:18:18;105.90;;;46.60;;
52322;SDS011;38263;52.920;6.238;2023-02-15T05:20:44;114.00;;;49.53;;
52322;SDS011;38263;52.920;6.238;2023-02-15T05:23:11;110.28;;;48.65;;
52322;SDS011;38263;52.920;6.238;2023-02-15T05:25:37;124.55;;;51.22;;
52322;SDS011;38263;52.920;6.238;2023-02-15T05:28:23;143.50;;;51.47;;
52322;SDS011;38263;52.920;6.238;2023-02-15T05:30:51;142.90;;;52.70;;
52322;SDS011;38263;52.920;6.238;2023-02-15T05:33:17;110.22;;;43.03;;
52322;SDS011;38263;52.920;6.238;2023-02-15T05:35:43;115.80;;;46.75;;
52322;SDS011;38263;52.920;6.238;2023-02-15T05:38:09;110.28;;;49.53;;
52322;SDS011;38263;52.920;6.238;2023-02-15T05:40:35;124.38;;;48.45;;
52322;SDS011;38263;52.920;6.238;2023-02-15T05:43:01;106.20;;;46.67;;
52322;SDS011;38263;52.920;6.238;2023-02-15T05:45:27;98.40;;;46.78;;
52322;SDS011;38263;52.920;6.238;2023-02-15T05:47:53;107.00;;;45.08;;
52322;SDS011;38263;52.920;6.238;2023-02-15T05:50:19;104.80;;;45.25;;
52322;SDS011;38263;52.920;6.238;2023-02-15T05:52:45;94.43;;;42.40;;
52322;SDS011;38263;52.920;6.238;2023-02-15T05:55:11;97.38;;;45.67;;
52322;SDS011;38263;52.920;6.238;2023-02-15T05:57:37;91.95;;;41.90;;
52322;SDS011;38263;52.920;6.238;2023-02-15T06:00:04;82.10;;;37.47;;
52322;SDS011;38263;52.920;6.238;2023-02-15T06:02:34;76.68;;;38.95;;
52322;SDS011;38263;52.920;6.238;2023-02-15T06:05:00;91.70;;;42.58;;
52322;SDS011;38263;52.920;6.238;2023-02-15T06:07:26;90.63;;;43.22;;
52322;SDS011;38263;52.920;6.238;2023-02-15T06:09:52;82.78;;;41.05;;
52322;SDS011;38263;52.920;6.238;2023-02-15T06:12:18;77.32;;;39.13;;
52322;SDS011;38263;52.920;6.238;2023-02-15T06:14:44;81.88;;;39.90;;
52322;SDS011;38263;52.920;6.238;2023-02-15T06:17:10;83.03;;;39.95;;
52322;SDS011;38263;52.920;6.238;2023-02-15T06:19:36;75.15;;;34.47;;
52322;SDS011;38263;52.920;6.238;2023-02-15T06:22:02;71.90;;;39.05;;
52322;SDS011;38263;52.920;6.238;2023-02-15T06:24:28;75.22;;;38.55;;
52322;SDS011;38263;52.920;6.238;2023-02-15T06:26:54;79.38;;;38.95;;
52322;SDS011;38263;52.920;6.238;2023-02-15T06:29:20;74.07;;;37.72;;
52322;SDS011;38263;52.920;6.238;2023-02-15T06:31:46;76.35;;;36.33;;
52322;SDS011;38263;52.920;6.238;2023-02-15T06:34:12;71.07;;;35.55;;
52322;SDS011;38263;52.920;6.238;2023-02-15T06:36:38;72.00;;;35.13;;
52322;SDS011;38263;52.920;6.238;2023-02-15T06:39:04;70.18;;;35.58;;
52322;SDS011;38263;52.920;6.238;2023-02-15T06:41:30;68.32;;;35.55;;
52322;SDS011;38263;52.920;6.238;2023-02-15T06:43:56;64.60;;;32.45;;
52322;SDS011;38263;52.920;6.238;2023-02-15T06:46:22;73.20;;;33.75;;
52322;SDS011;38263;52.920;6.238;2023-02-15T06:48:48;65.68;;;35.22;;
52322;SDS011;38263;52.920;6.238;2023-02-15T06:51:14;67.97;;;33.78;;
52322;SDS011;38263;52.920;6.238;2023-02-15T06:53:40;56.90;;;31.25;;
52322;SDS011;38263;52.920;6.238;2023-02-15T06:56:08;71.68;;;35.15;;
52322;SDS011;38263;52.920;6.238;2023-02-15T06:58:35;64.85;;;31.55;;
52322;SDS011;38263;52.920;6.238;2023-02-15T07:01:01;71.03;;;33.50;;
52322;SDS011;38263;52.920;6.238;2023-02-15T07:03:27;62.47;;;31.98;;
52322;SDS011;38263;52.920;6.238;2023-02-15T07:05:56;66.35;;;34.25;;
52322;SDS011;38263;52.920;6.238;2023-02-15T07:08:23;62.88;;;32.92;;
52322;SDS011;38263;52.920;6.238;2023-02-15T07:10:50;59.25;;;32.83;;
52322;SDS011;38263;52.920;6.238;2023-02-15T07:13:16;61.78;;;32.60;;
52322;SDS011;38263;52.920;6.238;2023-02-15T07:15:42;57.63;;;31.95;;
52322;SDS011;38263;52.920;6.238;2023-02-15T07:18:08;65.25;;;32.25;;
52322;SDS011;38263;52.920;6.238;2023-02-15T07:20:35;62.88;;;32.45;;
52322;SDS011;38263;52.920;6.238;2023-02-15T07:23:01;60.28;;;29.90;;
52322;SDS011;38263;52.920;6.238;2023-02-15T07:25:27;59.05;;;29.92;;
52322;SDS011;38263;52.920;6.238;2023-02-15T07:27:57;57.08;;;31.15;;
52322;SDS011;38263;52.920;6.238;2023-02-15T07:30:25;63.35;;;30.83;;
52322;SDS011;38263;52.920;6.238;2023-02-15T07:32:55;54.10;;;31.13;;
52322;SDS011;38263;52.920;6.238;2023-02-15T07:35:53;55.95;;;29.83;;
52322;SDS011;38263;52.920;6.238;2023-02-15T07:38:20;57.10;;;30.88;;
52322;SDS011;38263;52.920;6.238;2023-02-15T07:40:46;51.33;;;28.70;;
52322;SDS011;38263;52.920;6.238;2023-02-15T07:43:13;55.03;;;28.45;;
52322;SDS011;38263;52.920;6.238;2023-02-15T07:45:39;57.92;;;30.65;;
52322;SDS011;38263;52.920;6.238;2023-02-15T07:48:05;54.42;;;28.95;;
52322;SDS011;38263;52.920;6.238;2023-02-15T07:50:31;58.88;;;31.38;;
52322;SDS011;38263;52.920;6.238;2023-02-15T07:52:57;51.88;;;28.77;;
52322;SDS011;38263;52.920;6.238;2023-02-15T07:55:23;51.28;;;27.55;;
52322;SDS011;38263;52.920;6.238;2023-02-15T07:57:50;54.22;;;29.17;;
52322;SDS011;38263;52.920;6.238;2023-02-15T08:00:17;45.70;;;27.90;;
52322;SDS011;38263;52.920;6.238;2023-02-15T08:02:50;55.30;;;28.35;;
52322;SDS011;38263;52.920;6.238;2023-02-15T08:05:35;46.28;;;27.98;;
52322;SDS011;38263;52.920;6.238;2023-02-15T08:08:01;56.08;;;29.88;;
52322;SDS011;38263;52.920;6.238;2023-02-15T08:10:27;52.20;;;27.08;;
52322;SDS011;38263;52.920;6.238;2023-02-15T08:13:11;50.78;;;28.52;;
52322;SDS011;38263;52.920;6.238;2023-02-15T08:15:37;48.53;;;26.77;;
52322;SDS011;38263;52.920;6.238;2023-02-15T08:18:03;45.33;;;26.80;;
52322;SDS011;38263;52.920;6.238;2023-02-15T08:20:29;46.28;;;24.70;;
52322;SDS011;38263;52.920;6.238;2023-02-15T08:22:55;42.47;;;24.45;;
52322;SDS011;38263;52.920;6.238;2023-02-15T08:25:21;43.80;;;24.42;;
52322;SDS011;38263;52.920;6.238;2023-02-15T08:27:47;44.97;;;26.00;;
52322;SDS011;38263;52.920;6.238;2023-02-15T08:30:14;42.60;;;25.30;;
52322;SDS011;38263;52.920;6.238;2023-02-15T08:32:40;44.47;;;25.98;;
52322;SDS011;38263;52.920;6.238;2023-02-15T08:35:06;44.38;;;25.02;;
52322;SDS011;38263;52.920;6.238;2023-02-15T08:37:33;43.20;;;25.50;;
52322;SDS011;38263;52.920;6.238;2023-02-15T08:39:59;43.25;;;25.45;;
52322;SDS011;38263;52.920;6.238;2023-02-15T08:42:25;42.63;;;24.45;;
52322;SDS011;38263;52.920;6.238;2023-02-15T08:44:51;42.53;;;24.75;;
52322;SDS011;38263;52.920;6.238;2023-02-15T08:47:17;43.58;;;25.42;;
52322;SDS011;38263;52.920;6.238;2023-02-15T08:49:43;41.10;;;22.98;;
52322;SDS011;38263;52.920;6.238;2023-02-15T08:52:09;38.13;;;22.80;;
52322;SDS011;38263;52.920;6.238;2023-02-15T08:54:35;38.65;;;23.15;;
52322;SDS011;38263;52.920;6.238;2023-02-15T08:57:00;38.70;;;22.60;;
52322;SDS011;38263;52.920;6.238;2023-02-15T08:59:26;34.42;;;21.48;;
52322;SDS011;38263;52.920;6.238;2023-02-15T09:01:53;32.70;;;21.55;;
52322;SDS011;38263;52.920;6.238;2023-02-15T09:04:19;33.40;;;21.45;;
52322;SDS011;38263;52.920;6.238;2023-02-15T09:06:46;37.97;;;20.50;;
52322;SDS011;38263;52.920;6.238;2023-02-15T09:09:12;31.15;;;19.83;;
52322;SDS011;38263;52.920;6.238;2023-02-15T09:11:40;32.38;;;20.90;;
52322;SDS011;38263;52.920;6.238;2023-02-15T09:14:08;28.73;;;19.45;;
52322;SDS011;38263;52.920;6.238;2023-02-15T09:16:35;34.05;;;20.20;;
52322;SDS011;38263;52.920;6.238;2023-02-15T09:19:02;29.40;;;19.60;;
52322;SDS011;38263;52.920;6.238;2023-02-15T09:21:32;32.00;;;20.05;;
52322;SDS011;38263;52.920;6.238;2023-02-15T09:23:59;30.33;;;19.63;;
52322;SDS011;38263;52.920;6.238;2023-02-15T09:26:28;30.73;;;21.02;;
52322;SDS011;38263;52.920;6.238;2023-02-15T09:28:56;29.10;;;19.92;;
52322;SDS011;38263;52.920;6.238;2023-02-15T09:31:24;31.77;;;20.45;;
52322;SDS011;38263;52.920;6.238;2023-02-15T09:33:50;31.58;;;20.38;;
52322;SDS011;38263;52.920;6.238;2023-02-15T09:36:18;29.05;;;18.77;;
52322;SDS011;38263;52.920;6.238;2023-02-15T09:38:45;33.22;;;21.42;;
52322;SDS011;38263;52.920;6.238;2023-02-15T09:49:34;28.52;;;20.13;;
52322;SDS011;38263;52.920;6.238;2023-02-15T09:54:57;32.40;;;21.40;;
52322;SDS011;38263;52.920;6.238;2023-02-15T09:57:36;30.80;;;21.35;;
52322;SDS011;38263;52.920;6.238;2023-02-15T10:14:15;31.73;;;22.45;;
52322;SDS011;38263;52.920;6.238;2023-02-15T10:22:52;33.80;;;22.65;;
52322;SDS011;38263;52.920;6.238;2023-02-15T10:28:50;32.42;;;21.98;;
52322;SDS011;38263;52.920;6.238;2023-02-15T10:31:02;32.90;;;22.85;;
52322;SDS011;38263;52.920;6.238;2023-02-15T10:33:41;34.00;;;22.63;;
52322;SDS011;38263;52.920;6.238;2023-02-15T10:36:15;32.40;;;21.95;;
52322;SDS011;38263;52.920;6.238;2023-02-15T10:46:31;35.20;;;23.42;;
52322;SDS011;38263;52.920;6.238;2023-02-15T11:00:00;36.35;;;23.52;;
52322;SDS011;38263;52.920;6.238;2023-02-15T11:08:02;37.63;;;24.05;;
52322;SDS011;38263;52.920;6.238;2023-02-15T11:13:02;40.10;;;23.80;;
52322;SDS011;38263;52.920;6.238;2023-02-15T11:15:36;36.72;;;24.30;;
52322;SDS011;38263;52.920;6.238;2023-02-15T11:20:42;39.10;;;24.65;;
52322;SDS011;38263;52.920;6.238;2023-02-15T11:23:18;38.70;;;24.15;;
52322;SDS011;38263;52.920;6.238;2023-02-15T11:25:46;40.75;;;25.38;;
52322;SDS011;38263;52.920;6.238;2023-02-15T11:28:22;39.35;;;24.75;;
52322;SDS011;38263;52.920;6.238;2023-02-15T11:30:58;43.22;;;27.27;;
52322;SDS011;38263;52.920;6.238;2023-02-15T11:33:37;42.40;;;27.75;;
52322;SDS011;38263;52.920;6.238;2023-02-15T11:41:13;43.85;;;27.23;;
52322;SDS011;38263;52.920;6.238;2023-02-15T11:46:16;42.72;;;26.73;;
52322;SDS011;38263;52.920;6.238;2023-02-15T11:48:43;47.72;;;26.77;;
52322;SDS011;38263;52.920;6.238;2023-02-15T11:51:11;44.13;;;26.90;;
52322;SDS011;38263;52.920;6.238;2023-02-15T11:53:41;49.20;;;28.83;;
52322;SDS011;38263;52.920;6.238;2023-02-15T11:56:21;44.72;;;27.52;;
52322;SDS011;38263;52.920;6.238;2023-02-15T11:58:59;43.17;;;25.83;;
52322;SDS011;38263;52.920;6.238;2023-02-15T12:04:04;44.70;;;24.52;;
52322;SDS011;38263;52.920;6.238;2023-02-15T12:06:44;43.90;;;25.08;;
52322;SDS011;38263;52.920;6.238;2023-02-15T12:14:48;39.75;;;24.58;;
52322;SDS011;38263;52.920;6.238;2023-02-15T12:17:14;40.45;;;25.17;;
52322;SDS011;38263;52.920;6.238;2023-02-15T12:19:41;44.72;;;24.35;;
52322;SDS011;38263;52.920;6.238;2023-02-15T12:22:18;42.33;;;25.33;;
52322;SDS011;38263;52.920;6.238;2023-02-15T12:24:45;40.72;;;24.70;;
52322;SDS011;38263;52.920;6.238;2023-02-15T12:27:16;40.53;;;24.10;;
52322;SDS011;38263;52.920;6.238;2023-02-15T12:29:45;44.25;;;24.70;;
52322;SDS011;38263;52.920;6.238;2023-02-15T12:32:27;42.60;;;23.83;;
52322;SDS011;38263;52.920;6.238;2023-02-15T12:34:59;40.00;;;24.00;;
52322;SDS011;38263;52.920;6.238;2023-02-15T12:37:32;39.42;;;23.40;;
52322;SDS011;38263;52.920;6.238;2023-02-15T12:39:59;42.85;;;25.00;;
52322;SDS011;38263;52.920;6.238;2023-02-15T12:42:27;42.63;;;25.48;;
52322;SDS011;38263;52.920;6.238;2023-02-15T12:45:19;39.92;;;24.35;;
52322;SDS011;38263;52.920;6.238;2023-02-15T12:48:12;43.40;;;24.92;;
52322;SDS011;38263;52.920;6.238;2023-02-15T12:50:42;40.63;;;24.27;;
52322;SDS011;38263;52.920;6.238;2023-02-15T12:53:19;43.92;;;23.95;;
52322;SDS011;38263;52.920;6.238;2023-02-15T12:56:04;39.47;;;23.33;;
52322;SDS011;38263;52.920;6.238;2023-02-15T12:58:41;40.80;;;24.13;;
52322;SDS011;38263;52.920;6.238;2023-02-15T13:01:14;42.28;;;24.92;;
52322;SDS011;38263;52.920;6.238;2023-02-15T13:06:21;42.75;;;23.60;;
52322;SDS011;38263;52.920;6.238;2023-02-15T13:08:48;44.08;;;23.80;;
52322;SDS011;38263;52.920;6.238;2023-02-15T13:11:21;37.15;;;21.45;;
52322;SDS011;38263;52.920;6.238;2023-02-15T13:13:59;39.95;;;22.23;;
52322;SDS011;38263;52.920;6.238;2023-02-15T13:16:38;40.53;;;22.67;;
52322;SDS011;38263;52.920;6.238;2023-02-15T13:19:06;40.55;;;22.65;;
52322;SDS011;38263;52.920;6.238;2023-02-15T13:21:37;37.85;;;23.00;;
52322;SDS011;38263;52.920;6.238;2023-02-15T13:24:10;38.38;;;23.13;;
52322;SDS011;38263;52.920;6.238;2023-02-15T13:26:39;39.78;;;22.83;;
52322;SDS011;38263;52.920;6.238;2023-02-15T13:29:26;40.28;;;23.25;;
52322;SDS011;38263;52.920;6.238;2023-02-15T13:31:54;37.28;;;21.30;;
52322;SDS011;38263;52.920;6.238;2023-02-15T13:34:25;38.33;;;21.98;;
52322;SDS011;38263;52.920;6.238;2023-02-15T13:37:04;37.70;;;23.10;;
52322;SDS011;38263;52.920;6.238;2023-02-15T13:42:20;37.95;;;22.40;;
52322;SDS011;38263;52.920;6.238;2023-02-15T13:52:47;37.55;;;22.60;;
52322;SDS011;38263;52.920;6.238;2023-02-15T14:00:52;40.67;;;22.13;;
52322;SDS011;38263;52.920;6.238;2023-02-15T14:03:43;37.33;;;23.20;;
52322;SDS011;38263;52.920;6.238;2023-02-15T14:22:44;35.63;;;22.17;;
52322;SDS011;38263;52.920;6.238;2023-02-15T14:30:20;39.05;;;22.45;;
52322;SDS011;38263;52.920;6.238;2023-02-15T14:33:01;36.40;;;22.55;;
52322;SDS011;38263;52.920;6.238;2023-02-15T14:35:31;38.35;;;23.63;;
52322;SDS011;38263;52.920;6.238;2023-02-15T14:46:30;34.30;;;22.88;;
52322;SDS011;38263;52.920;6.238;2023-02-15T14:54:11;41.72;;;24.77;;
52322;SDS011;38263;52.920;6.238;2023-02-15T14:59:36;39.63;;;24.27;;
52322;SDS011;38263;52.920;6.238;2023-02-15T15:02:17;40.17;;;24.83;;
52322;SDS011;38263;52.920;6.238;2023-02-15T15:04:55;38.90;;;24.27;;
52322;SDS011;38263;52.920;6.238;2023-02-15T15:07:28;40.67;;;25.48;;
52322;SDS011;38263;52.920;6.238;2023-02-15T15:10:32;38.35;;;24.17;;
52322;SDS011;38263;52.920;6.238;2023-02-15T15:15:57;44.95;;;26.35;;
52322;SDS011;38263;52.920;6.238;2023-02-15T15:18:51;41.40;;;25.83;;
52322;SDS011;38263;52.920;6.238;2023-02-15T15:32:42;41.08;;;25.20;;
52322;SDS011;38263;52.920;6.238;2023-02-15T15:40:38;43.30;;;26.20;;
52322;SDS011;38263;52.920;6.238;2023-02-15T15:46:13;45.10;;;26.55;;
52322;SDS011;38263;52.920;6.238;2023-02-15T15:48:55;43.30;;;23.92;;
52322;SDS011;38263;52.920;6.238;2023-02-15T15:51:33;45.22;;;25.63;;
52322;SDS011;38263;52.920;6.238;2023-02-15T15:54:01;40.47;;;26.52;;
52322;SDS011;38263;52.920;6.238;2023-02-15T15:56:29;40.38;;;25.13;;
52322;SDS011;38263;52.920;6.238;2023-02-15T15:59:00;43.17;;;25.38;;
52322;SDS011;38263;52.920;6.238;2023-02-15T16:01:27;40.10;;;24.20;;
52322;SDS011;38263;52.920;6.238;2023-02-15T16:03:56;44.88;;;27.70;;
52322;SDS011;38263;52.920;6.238;2023-02-15T16:06:27;41.97;;;25.77;;
52322;SDS011;38263;52.920;6.238;2023-02-15T16:08:54;41.15;;;24.80;;
52322;SDS011;38263;52.920;6.238;2023-02-15T16:11:21;43.85;;;26.05;;
52322;SDS011;38263;52.920;6.238;2023-02-15T16:13:50;45.17;;;25.17;;
52322;SDS011;38263;52.920;6.238;2023-02-15T16:16:20;42.55;;;24.92;;
52322;SDS011;38263;52.920;6.238;2023-02-15T16:18:47;42.38;;;26.45;;
52322;SDS011;38263;52.920;6.238;2023-02-15T16:21:21;41.33;;;25.88;;
52322;SDS011;38263;52.920;6.238;2023-02-15T16:28:58;44.38;;;26.42;;
52322;SDS011;38263;52.920;6.238;2023-02-15T16:31:26;40.08;;;24.65;;
52322;SDS011;38263;52.920;6.238;2023-02-15T16:33:52;44.75;;;25.98;;
52322;SDS011;38263;52.920;6.238;2023-02-15T16:36:23;38.35;;;24.20;;
52322;SDS011;38263;52.920;6.238;2023-02-15T16:41:26;44.90;;;25.58;;
52322;SDS011;38263;52.920;6.238;2023-02-15T16:43:53;43.08;;;24.00;;
52322;SDS011;38263;52.920;6.238;2023-02-15T16:46:22;42.13;;;25.02;;
52322;SDS011;38263;52.920;6.238;2023-02-15T16:48:58;44.53;;;25.50;;
52322;SDS011;38263;52.920;6.238;2023-02-15T16:51:27;43.20;;;25.15;;
52322;SDS011;38263;52.920;6.238;2023-02-15T16:53:55;41.70;;;24.15;;
52322;SDS011;38263;52.920;6.238;2023-02-15T16:56:26;38.90;;;23.80;;
52322;SDS011;38263;52.920;6.238;2023-02-15T16:58:53;45.65;;;25.40;;
52322;SDS011;38263;52.920;6.238;2023-02-15T17:01:20;43.38;;;25.58;;
52322;SDS011;38263;52.920;6.238;2023-02-15T17:03:49;41.53;;;25.58;;
52322;SDS011;38263;52.920;6.238;2023-02-15T17:06:21;41.10;;;24.95;;
52322;SDS011;38263;52.920;6.238;2023-02-15T17:08:47;45.08;;;25.42;;
52322;SDS011;38263;52.920;6.238;2023-02-15T17:13:40;43.38;;;24.80;;
52322;SDS011;38263;52.920;6.238;2023-02-15T17:18:59;43.63;;;25.38;;
52322;SDS011;38263;52.920;6.238;2023-02-15T17:21:33;44.25;;;25.00;;
52322;SDS011;38263;52.920;6.238;2023-02-15T17:24:04;47.92;;;26.73;;
52322;SDS011;38263;52.920;6.238;2023-02-15T17:26:31;41.25;;;25.42;;
52322;SDS011;38263;52.920;6.238;2023-02-15T17:28:59;43.47;;;25.33;;
52322;SDS011;38263;52.920;6.238;2023-02-15T17:31:34;41.00;;;24.73;;
52322;SDS011;38263;52.920;6.238;2023-02-15T17:34:00;45.45;;;24.38;;
52322;SDS011;38263;52.920;6.238;2023-02-15T17:36:27;45.38;;;25.40;;
52322;SDS011;38263;52.920;6.238;2023-02-15T17:41:23;48.28;;;25.70;;
52322;SDS011;38263;52.920;6.238;2023-02-15T17:43:49;45.03;;;26.50;;
52322;SDS011;38263;52.920;6.238;2023-02-15T17:46:15;48.95;;;25.80;;
52322;SDS011;38263;52.920;6.238;2023-02-15T17:48:45;47.97;;;25.65;;
52322;SDS011;38263;52.920;6.238;2023-02-15T17:51:12;46.13;;;26.33;;
52322;SDS011;38263;52.920;6.238;2023-02-15T17:53:39;48.33;;;26.77;;